sensor_id;sensor_type;location;lat;lon;timestamp;P1;durP1;ratioP1;P2;durP2;ratioP2
48999;SDS011;34808;48.144;17.158;2022-10-18T00:01:04;12.18;;;8.35;;
48999;SDS011;34808;48.144;17.158;2022-10-18T00:03:37;14.02;;;7.38;;
48999;SDS011;34808;48.144;17.158;2022-10-18T00:06:02;10.52;;;7.88;;
48999;SDS011;34808;48.144;17.158;2022-10-18T00:08:29;13.70;;;7.90;;
48999;SDS011;34808;48.144;17.158;2022-10-18T00:10:54;14.23;;;8.35;;
48999;SDS011;34808;48.144;17.158;2022-10-18T00:13:20;15.90;;;8.80;;
48999;SDS011;34808;48.144;17.158;2022-10-18T00:15:52;15.63;;;8.90;;
48999;SDS011;34808;48.144;17.158;2022-10-18T00:18:26;17.30;;;8.35;;
48999;SDS011;34808;48.144;17.158;2022-10-18T00:20:59;13.93;;;8.88;;
48999;SDS011;34808;48.144;17.158;2022-10-18T00:23:31;14.85;;;8.13;;
48999;SDS011;34808;48.144;17.158;2022-10-18T00:28:35;16.33;;;8.48;;
48999;SDS011;34808;48.144;17.158;2022-10-18T00:33:43;15.50;;;9.43;;
48999;SDS011;34808;48.144;17.158;2022-10-18T00:36:12;13.25;;;7.88;;
48999;SDS011;34808;48.144;17.158;2022-10-18T00:38:38;10.77;;;7.25;;
48999;SDS011;34808;48.144;17.158;2022-10-18T00:41:04;11.48;;;8.88;;
48999;SDS011;34808;48.144;17.158;2022-10-18T00:43:31;17.23;;;8.45;;
48999;SDS011;34808;48.144;17.158;2022-10-18T00:45:56;12.15;;;9.65;;
48999;SDS011;34808;48.144;17.158;2022-10-18T00:48:22;12.02;;;8.27;;
48999;SDS011;34808;48.144;17.158;2022-10-18T00:50:47;13.93;;;8.10;;
48999;SDS011;34808;48.144;17.158;2022-10-18T00:53:17;14.38;;;8.80;;
48999;SDS011;34808;48.144;17.158;2022-10-18T00:55:48;15.35;;;9.02;;
48999;SDS011;34808;48.144;17.158;2022-10-18T00:58:14;14.77;;;8.93;;
48999;SDS011;34808;48.144;17.158;2022-10-18T01:00:43;10.45;;;8.50;;
48999;SDS011;34808;48.144;17.158;2022-10-18T01:03:08;12.18;;;8.57;;
48999;SDS011;34808;48.144;17.158;2022-10-18T01:05:37;13.55;;;8.73;;
48999;SDS011;34808;48.144;17.158;2022-10-18T01:08:18;13.60;;;8.43;;
48999;SDS011;34808;48.144;17.158;2022-10-18T01:30:50;15.38;;;9.43;;
48999;SDS011;34808;48.144;17.158;2022-10-18T01:33:35;9.98;;;8.52;;
48999;SDS011;34808;48.144;17.158;2022-10-18T01:45:10;15.25;;;8.70;;
48999;SDS011;34808;48.144;17.158;2022-10-18T01:47:37;12.68;;;7.53;;
48999;SDS011;34808;48.144;17.158;2022-10-18T01:50:04;14.13;;;8.45;;
48999;SDS011;34808;48.144;17.158;2022-10-18T02:04:50;12.73;;;8.60;;
48999;SDS011;34808;48.144;17.158;2022-10-18T02:10:10;12.80;;;8.88;;
48999;SDS011;34808;48.144;17.158;2022-10-18T02:12:44;14.40;;;9.98;;
48999;SDS011;34808;48.144;17.158;2022-10-18T02:15:33;12.73;;;8.57;;
48999;SDS011;34808;48.144;17.158;2022-10-18T02:18:08;11.52;;;9.27;;
48999;SDS011;34808;48.144;17.158;2022-10-18T02:31:11;13.15;;;8.68;;
48999;SDS011;34808;48.144;17.158;2022-10-18T02:34:34;12.38;;;8.10;;
48999;SDS011;34808;48.144;17.158;2022-10-18T02:40:26;11.68;;;8.32;;
48999;SDS011;34808;48.144;17.158;2022-10-18T02:42:54;12.60;;;8.52;;
48999;SDS011;34808;48.144;17.158;2022-10-18T02:45:21;16.67;;;10.15;;
48999;SDS011;34808;48.144;17.158;2022-10-18T02:47:48;13.50;;;8.48;;
48999;SDS011;34808;48.144;17.158;2022-10-18T02:53:36;15.65;;;8.07;;
48999;SDS011;34808;48.144;17.158;2022-10-18T03:09:01;14.18;;;8.30;;
48999;SDS011;34808;48.144;17.158;2022-10-18T03:15:04;14.43;;;8.68;;
48999;SDS011;34808;48.144;17.158;2022-10-18T03:27:25;17.23;;;11.15;;
48999;SDS011;34808;48.144;17.158;2022-10-18T03:39:34;12.48;;;9.15;;
48999;SDS011;34808;48.144;17.158;2022-10-18T04:28:17;11.05;;;9.13;;
48999;SDS011;34808;48.144;17.158;2022-10-18T04:30:42;15.63;;;9.63;;
48999;SDS011;34808;48.144;17.158;2022-10-18T04:33:07;13.30;;;9.48;;
48999;SDS011;34808;48.144;17.158;2022-10-18T04:35:33;23.10;;;10.60;;
48999;SDS011;34808;48.144;17.158;2022-10-18T04:37:59;17.17;;;10.68;;
48999;SDS011;34808;48.144;17.158;2022-10-18T04:40:27;14.50;;;9.85;;
48999;SDS011;34808;48.144;17.158;2022-10-18T04:42:52;11.32;;;9.68;;
48999;SDS011;34808;48.144;17.158;2022-10-18T04:45:29;16.55;;;9.82;;
48999;SDS011;34808;48.144;17.158;2022-10-18T04:54:06;13.02;;;9.38;;
48999;SDS011;34808;48.144;17.158;2022-10-18T04:56:31;14.35;;;10.98;;
48999;SDS011;34808;48.144;17.158;2022-10-18T04:58:58;20.42;;;10.68;;
48999;SDS011;34808;48.144;17.158;2022-10-18T05:01:24;14.82;;;10.18;;
48999;SDS011;34808;48.144;17.158;2022-10-18T05:03:51;19.65;;;10.90;;
48999;SDS011;34808;48.144;17.158;2022-10-18T05:06:18;15.90;;;10.20;;
48999;SDS011;34808;48.144;17.158;2022-10-18T05:15:15;16.85;;;10.57;;
48999;SDS011;34808;48.144;17.158;2022-10-18T05:17:40;15.88;;;10.13;;
48999;SDS011;34808;48.144;17.158;2022-10-18T05:20:06;14.70;;;9.98;;
48999;SDS011;34808;48.144;17.158;2022-10-18T05:22:41;11.73;;;9.50;;
48999;SDS011;34808;48.144;17.158;2022-10-18T05:31:41;15.77;;;10.77;;
48999;SDS011;34808;48.144;17.158;2022-10-18T05:34:18;16.75;;;10.52;;
48999;SDS011;34808;48.144;17.158;2022-10-18T05:36:46;18.50;;;11.07;;
48999;SDS011;34808;48.144;17.158;2022-10-18T05:39:13;17.77;;;10.20;;
48999;SDS011;34808;48.144;17.158;2022-10-18T05:41:39;18.63;;;9.90;;
48999;SDS011;34808;48.144;17.158;2022-10-18T05:44:05;13.00;;;9.98;;
48999;SDS011;34808;48.144;17.158;2022-10-18T05:46:31;17.75;;;12.10;;
48999;SDS011;34808;48.144;17.158;2022-10-18T05:48:57;16.77;;;10.60;;
48999;SDS011;34808;48.144;17.158;2022-10-18T05:51:42;17.67;;;10.20;;
48999;SDS011;34808;48.144;17.158;2022-10-18T06:03:47;27.43;;;11.03;;
48999;SDS011;34808;48.144;17.158;2022-10-18T06:06:12;22.85;;;12.10;;
48999;SDS011;34808;48.144;17.158;2022-10-18T06:08:39;16.67;;;10.70;;
48999;SDS011;34808;48.144;17.158;2022-10-18T06:11:06;20.58;;;10.88;;
48999;SDS011;34808;48.144;17.158;2022-10-18T06:13:33;16.23;;;10.85;;
48999;SDS011;34808;48.144;17.158;2022-10-18T06:15:58;21.13;;;11.27;;
48999;SDS011;34808;48.144;17.158;2022-10-18T06:18:23;16.38;;;10.15;;
48999;SDS011;34808;48.144;17.158;2022-10-18T06:20:49;17.50;;;11.05;;
48999;SDS011;34808;48.144;17.158;2022-10-18T06:23:20;13.32;;;10.60;;
48999;SDS011;34808;48.144;17.158;2022-10-18T06:25:45;17.67;;;11.38;;
48999;SDS011;34808;48.144;17.158;2022-10-18T06:28:10;17.42;;;10.60;;
48999;SDS011;34808;48.144;17.158;2022-10-18T06:30:36;14.07;;;10.15;;
48999;SDS011;34808;48.144;17.158;2022-10-18T06:33:01;17.92;;;11.68;;
48999;SDS011;34808;48.144;17.158;2022-10-18T06:35:26;15.45;;;10.45;;
48999;SDS011;34808;48.144;17.158;2022-10-18T06:37:52;15.02;;;9.35;;
48999;SDS011;34808;48.144;17.158;2022-10-18T06:40:17;17.95;;;9.90;;
48999;SDS011;34808;48.144;17.158;2022-10-18T06:42:42;18.77;;;10.25;;
48999;SDS011;34808;48.144;17.158;2022-10-18T06:45:08;15.43;;;9.63;;
48999;SDS011;34808;48.144;17.158;2022-10-18T06:47:33;13.52;;;9.55;;
48999;SDS011;34808;48.144;17.158;2022-10-18T06:49:59;13.90;;;10.00;;
48999;SDS011;34808;48.144;17.158;2022-10-18T06:52:24;13.95;;;9.90;;
48999;SDS011;34808;48.144;17.158;2022-10-18T06:54:50;14.52;;;10.25;;
48999;SDS011;34808;48.144;17.158;2022-10-18T06:57:16;18.75;;;10.20;;
48999;SDS011;34808;48.144;17.158;2022-10-18T06:59:41;14.25;;;9.20;;
48999;SDS011;34808;48.144;17.158;2022-10-18T07:02:08;17.15;;;10.23;;
48999;SDS011;34808;48.144;17.158;2022-10-18T07:04:36;16.90;;;9.27;;
48999;SDS011;34808;48.144;17.158;2022-10-18T07:07:01;19.38;;;9.60;;
48999;SDS011;34808;48.144;17.158;2022-10-18T07:09:26;19.70;;;10.38;;
48999;SDS011;34808;48.144;17.158;2022-10-18T07:11:52;14.80;;;9.75;;
48999;SDS011;34808;48.144;17.158;2022-10-18T07:14:17;14.70;;;9.95;;
48999;SDS011;34808;48.144;17.158;2022-10-18T07:16:42;13.82;;;9.55;;
48999;SDS011;34808;48.144;17.158;2022-10-18T07:19:07;18.08;;;10.55;;
48999;SDS011;34808;48.144;17.158;2022-10-18T07:21:33;15.70;;;10.05;;
48999;SDS011;34808;48.144;17.158;2022-10-18T07:23:58;13.73;;;9.15;;
48999;SDS011;34808;48.144;17.158;2022-10-18T07:26:25;16.88;;;9.85;;
48999;SDS011;34808;48.144;17.158;2022-10-18T07:28:52;14.45;;;8.70;;
48999;SDS011;34808;48.144;17.158;2022-10-18T07:31:21;20.00;;;9.68;;
48999;SDS011;34808;48.144;17.158;2022-10-18T07:33:48;14.98;;;10.07;;
48999;SDS011;34808;48.144;17.158;2022-10-18T07:36:13;13.63;;;9.85;;
48999;SDS011;34808;48.144;17.158;2022-10-18T07:38:38;13.30;;;10.18;;
48999;SDS011;34808;48.144;17.158;2022-10-18T07:41:05;14.32;;;10.00;;
48999;SDS011;34808;48.144;17.158;2022-10-18T07:43:32;12.82;;;9.00;;
48999;SDS011;34808;48.144;17.158;2022-10-18T07:45:59;19.15;;;9.90;;
48999;SDS011;34808;48.144;17.158;2022-10-18T07:48:27;11.75;;;9.20;;
48999;SDS011;34808;48.144;17.158;2022-10-18T07:50:52;13.57;;;9.40;;
48999;SDS011;34808;48.144;17.158;2022-10-18T07:53:18;16.75;;;10.02;;
48999;SDS011;34808;48.144;17.158;2022-10-18T07:55:44;13.20;;;9.80;;
48999;SDS011;34808;48.144;17.158;2022-10-18T07:58:12;17.35;;;10.18;;
48999;SDS011;34808;48.144;17.158;2022-10-18T08:00:37;15.35;;;9.00;;
48999;SDS011;34808;48.144;17.158;2022-10-18T08:03:03;14.88;;;8.48;;
48999;SDS011;34808;48.144;17.158;2022-10-18T08:05:29;17.45;;;9.43;;
48999;SDS011;34808;48.144;17.158;2022-10-18T08:07:54;13.93;;;10.20;;
48999;SDS011;34808;48.144;17.158;2022-10-18T08:13:35;11.75;;;9.32;;
48999;SDS011;34808;48.144;17.158;2022-10-18T08:16:01;13.95;;;8.43;;
48999;SDS011;34808;48.144;17.158;2022-10-18T08:18:29;18.10;;;9.65;;
48999;SDS011;34808;48.144;17.158;2022-10-18T08:20:55;15.98;;;8.50;;
48999;SDS011;34808;48.144;17.158;2022-10-18T08:23:20;12.88;;;8.60;;
48999;SDS011;34808;48.144;17.158;2022-10-18T08:25:46;15.07;;;9.02;;
48999;SDS011;34808;48.144;17.158;2022-10-18T08:28:11;11.85;;;9.60;;
48999;SDS011;34808;48.144;17.158;2022-10-18T08:30:38;17.73;;;10.23;;
48999;SDS011;34808;48.144;17.158;2022-10-18T08:33:03;14.88;;;9.88;;
48999;SDS011;34808;48.144;17.158;2022-10-18T08:35:29;17.92;;;8.73;;
48999;SDS011;34808;48.144;17.158;2022-10-18T08:37:55;16.45;;;9.10;;
48999;SDS011;34808;48.144;17.158;2022-10-18T08:40:21;16.15;;;9.50;;
48999;SDS011;34808;48.144;17.158;2022-10-18T08:42:55;15.80;;;9.40;;
48999;SDS011;34808;48.144;17.158;2022-10-18T08:45:41;14.68;;;8.73;;
48999;SDS011;34808;48.144;17.158;2022-10-18T08:48:53;14.15;;;9.05;;
48999;SDS011;34808;48.144;17.158;2022-10-18T08:51:03;14.43;;;7.78;;
48999;SDS011;34808;48.144;17.158;2022-10-18T08:53:33;11.10;;;8.18;;
48999;SDS011;34808;48.144;17.158;2022-10-18T08:56:10;17.92;;;9.02;;
48999;SDS011;34808;48.144;17.158;2022-10-18T08:58:39;14.77;;;8.68;;
48999;SDS011;34808;48.144;17.158;2022-10-18T09:04:06;14.75;;;8.25;;
48999;SDS011;34808;48.144;17.158;2022-10-18T09:11:50;14.02;;;7.60;;
48999;SDS011;34808;48.144;17.158;2022-10-18T09:14:32;12.30;;;7.05;;
48999;SDS011;34808;48.144;17.158;2022-10-18T09:20:00;11.82;;;6.78;;
48999;SDS011;34808;48.144;17.158;2022-10-18T09:22:42;9.70;;;5.97;;
48999;SDS011;34808;48.144;17.158;2022-10-18T09:25:21;13.50;;;7.53;;
48999;SDS011;34808;48.144;17.158;2022-10-18T09:33:34;10.32;;;6.40;;
48999;SDS011;34808;48.144;17.158;2022-10-18T09:36:38;11.82;;;7.32;;
48999;SDS011;34808;48.144;17.158;2022-10-18T09:39:12;14.60;;;6.88;;
48999;SDS011;34808;48.144;17.158;2022-10-18T09:41:46;9.57;;;6.03;;
48999;SDS011;34808;48.144;17.158;2022-10-18T09:44:19;13.13;;;7.28;;
48999;SDS011;34808;48.144;17.158;2022-10-18T09:47:11;11.15;;;6.35;;
48999;SDS011;34808;48.144;17.158;2022-10-18T09:49:47;15.60;;;6.05;;
48999;SDS011;34808;48.144;17.158;2022-10-18T09:52:20;11.30;;;6.53;;
48999;SDS011;34808;48.144;17.158;2022-10-18T09:54:56;12.40;;;6.40;;
48999;SDS011;34808;48.144;17.158;2022-10-18T09:57:30;10.95;;;6.88;;
48999;SDS011;34808;48.144;17.158;2022-10-18T10:00:02;9.60;;;6.13;;
48999;SDS011;34808;48.144;17.158;2022-10-18T10:02:30;13.38;;;7.88;;
48999;SDS011;34808;48.144;17.158;2022-10-18T10:04:56;12.10;;;6.60;;
48999;SDS011;34808;48.144;17.158;2022-10-18T10:07:26;9.20;;;6.07;;
48999;SDS011;34808;48.144;17.158;2022-10-18T10:09:58;17.33;;;6.72;;
48999;SDS011;34808;48.144;17.158;2022-10-18T10:12:38;15.48;;;6.82;;
48999;SDS011;34808;48.144;17.158;2022-10-18T10:15:21;11.13;;;5.90;;
48999;SDS011;34808;48.144;17.158;2022-10-18T10:17:53;14.98;;;6.80;;
48999;SDS011;34808;48.144;17.158;2022-10-18T10:20:28;8.07;;;5.47;;
48999;SDS011;34808;48.144;17.158;2022-10-18T10:23:08;8.25;;;5.78;;
48999;SDS011;34808;48.144;17.158;2022-10-18T10:25:40;12.10;;;5.88;;
48999;SDS011;34808;48.144;17.158;2022-10-18T10:28:11;9.02;;;6.00;;
48999;SDS011;34808;48.144;17.158;2022-10-18T10:30:39;8.82;;;5.43;;
48999;SDS011;34808;48.144;17.158;2022-10-18T10:33:05;13.40;;;7.18;;
48999;SDS011;34808;48.144;17.158;2022-10-18T10:35:54;8.73;;;5.63;;
48999;SDS011;34808;48.144;17.158;2022-10-18T10:38:24;8.15;;;5.22;;
48999;SDS011;34808;48.144;17.158;2022-10-18T10:40:50;7.45;;;4.97;;
48999;SDS011;34808;48.144;17.158;2022-10-18T10:43:19;15.07;;;5.68;;
48999;SDS011;34808;48.144;17.158;2022-10-18T10:48:32;13.52;;;6.28;;
48999;SDS011;34808;48.144;17.158;2022-10-18T10:51:05;8.55;;;6.68;;
48999;SDS011;34808;48.144;17.158;2022-10-18T10:56:20;12.85;;;6.10;;
48999;SDS011;34808;48.144;17.158;2022-10-18T10:58:46;14.73;;;6.60;;
48999;SDS011;34808;48.144;17.158;2022-10-18T11:01:23;9.60;;;5.40;;
48999;SDS011;34808;48.144;17.158;2022-10-18T11:03:53;10.07;;;5.90;;
48999;SDS011;34808;48.144;17.158;2022-10-18T11:09:02;8.27;;;5.77;;
48999;SDS011;34808;48.144;17.158;2022-10-18T11:11:35;9.35;;;5.53;;
48999;SDS011;34808;48.144;17.158;2022-10-18T11:16:56;10.65;;;5.13;;
48999;SDS011;34808;48.144;17.158;2022-10-18T11:22:26;9.55;;;5.63;;
48999;SDS011;34808;48.144;17.158;2022-10-18T11:24:57;13.32;;;6.40;;
48999;SDS011;34808;48.144;17.158;2022-10-18T11:27:24;11.50;;;5.40;;
48999;SDS011;34808;48.144;17.158;2022-10-18T11:30:17;9.00;;;5.97;;
48999;SDS011;34808;48.144;17.158;2022-10-18T11:35:46;9.82;;;6.05;;
48999;SDS011;34808;48.144;17.158;2022-10-18T11:43:55;22.60;;;9.68;;
48999;SDS011;34808;48.144;17.158;2022-10-18T11:46:39;10.25;;;7.07;;
48999;SDS011;34808;48.144;17.158;2022-10-18T12:02:39;9.40;;;6.95;;
48999;SDS011;34808;48.144;17.158;2022-10-18T12:05:26;11.32;;;6.68;;
48999;SDS011;34808;48.144;17.158;2022-10-18T12:10:36;11.10;;;6.82;;
48999;SDS011;34808;48.144;17.158;2022-10-18T12:13:06;8.30;;;6.03;;
48999;SDS011;34808;48.144;17.158;2022-10-18T12:15:38;12.30;;;7.38;;
48999;SDS011;34808;48.144;17.158;2022-10-18T12:18:16;12.18;;;6.25;;
48999;SDS011;34808;48.144;17.158;2022-10-18T12:20:49;8.63;;;5.85;;
48999;SDS011;34808;48.144;17.158;2022-10-18T12:23:33;7.15;;;6.00;;
48999;SDS011;34808;48.144;17.158;2022-10-18T12:26:04;8.23;;;6.00;;
48999;SDS011;34808;48.144;17.158;2022-10-18T12:31:29;7.70;;;5.82;;
48999;SDS011;34808;48.144;17.158;2022-10-18T12:34:11;7.03;;;5.53;;
48999;SDS011;34808;48.144;17.158;2022-10-18T12:42:23;9.60;;;6.28;;
48999;SDS011;34808;48.144;17.158;2022-10-18T12:47:25;17.17;;;6.13;;
48999;SDS011;34808;48.144;17.158;2022-10-18T12:49:57;13.98;;;5.20;;
48999;SDS011;34808;48.144;17.158;2022-10-18T12:52:25;10.40;;;5.80;;
48999;SDS011;34808;48.144;17.158;2022-10-18T12:55:00;10.60;;;5.28;;
48999;SDS011;34808;48.144;17.158;2022-10-18T12:58:19;11.38;;;5.90;;
48999;SDS011;34808;48.144;17.158;2022-10-18T13:03:27;11.73;;;6.10;;
48999;SDS011;34808;48.144;17.158;2022-10-18T13:11:12;10.65;;;6.22;;
48999;SDS011;34808;48.144;17.158;2022-10-18T13:18:55;7.70;;;5.22;;
48999;SDS011;34808;48.144;17.158;2022-10-18T13:21:31;14.73;;;6.28;;
48999;SDS011;34808;48.144;17.158;2022-10-18T13:24:15;8.32;;;6.03;;
48999;SDS011;34808;48.144;17.158;2022-10-18T13:27:00;12.50;;;5.95;;
48999;SDS011;34808;48.144;17.158;2022-10-18T13:32:43;9.05;;;5.40;;
48999;SDS011;34808;48.144;17.158;2022-10-18T13:41:13;8.73;;;5.57;;
48999;SDS011;34808;48.144;17.158;2022-10-18T14:08:36;7.68;;;5.43;;
48999;SDS011;34808;48.144;17.158;2022-10-18T14:11:29;10.77;;;6.22;;
48999;SDS011;34808;48.144;17.158;2022-10-18T14:16:49;11.40;;;6.20;;
48999;SDS011;34808;48.144;17.158;2022-10-18T14:22:50;10.60;;;5.97;;
48999;SDS011;34808;48.144;17.158;2022-10-18T14:25:25;16.65;;;6.40;;
48999;SDS011;34808;48.144;17.158;2022-10-18T14:30:54;9.85;;;5.63;;
48999;SDS011;34808;48.144;17.158;2022-10-18T14:33:27;7.53;;;6.20;;
48999;SDS011;34808;48.144;17.158;2022-10-18T14:38:37;8.25;;;5.78;;
48999;SDS011;34808;48.144;17.158;2022-10-18T14:41:16;11.48;;;6.85;;
48999;SDS011;34808;48.144;17.158;2022-10-18T14:43:45;10.82;;;7.25;;
48999;SDS011;34808;48.144;17.158;2022-10-18T14:46:16;10.10;;;6.25;;
48999;SDS011;34808;48.144;17.158;2022-10-18T14:48:55;12.13;;;6.38;;
48999;SDS011;34808;48.144;17.158;2022-10-18T14:51:20;8.15;;;5.93;;
48999;SDS011;34808;48.144;17.158;2022-10-18T14:53:46;11.02;;;6.40;;
48999;SDS011;34808;48.144;17.158;2022-10-18T14:56:18;9.65;;;7.05;;
48999;SDS011;34808;48.144;17.158;2022-10-18T14:58:47;13.88;;;6.05;;
48999;SDS011;34808;48.144;17.158;2022-10-18T15:01:16;11.95;;;6.18;;
48999;SDS011;34808;48.144;17.158;2022-10-18T15:03:43;11.93;;;6.80;;
48999;SDS011;34808;48.144;17.158;2022-10-18T15:06:16;12.73;;;6.55;;
48999;SDS011;34808;48.144;17.158;2022-10-18T15:08:44;12.40;;;6.70;;
48999;SDS011;34808;48.144;17.158;2022-10-18T15:11:12;10.65;;;6.68;;
48999;SDS011;34808;48.144;17.158;2022-10-18T15:13:51;14.65;;;7.80;;
48999;SDS011;34808;48.144;17.158;2022-10-18T15:16:19;13.98;;;8.10;;
48999;SDS011;34808;48.144;17.158;2022-10-18T15:21:26;8.90;;;6.93;;
48999;SDS011;34808;48.144;17.158;2022-10-18T15:23:52;9.98;;;6.97;;
48999;SDS011;34808;48.144;17.158;2022-10-18T15:26:23;11.15;;;6.72;;
48999;SDS011;34808;48.144;17.158;2022-10-18T15:28:51;9.90;;;6.15;;
48999;SDS011;34808;48.144;17.158;2022-10-18T15:31:26;14.50;;;6.82;;
48999;SDS011;34808;48.144;17.158;2022-10-18T15:36:50;18.83;;;7.15;;
48999;SDS011;34808;48.144;17.158;2022-10-18T15:39:25;17.23;;;7.07;;
48999;SDS011;34808;48.144;17.158;2022-10-18T15:41:54;8.00;;;6.53;;
48999;SDS011;34808;48.144;17.158;2022-10-18T15:54:57;10.02;;;7.18;;
48999;SDS011;34808;48.144;17.158;2022-10-18T15:57:23;17.63;;;7.90;;
48999;SDS011;34808;48.144;17.158;2022-10-18T15:59:51;12.43;;;7.32;;
48999;SDS011;34808;48.144;17.158;2022-10-18T16:02:21;12.27;;;8.32;;
48999;SDS011;34808;48.144;17.158;2022-10-18T16:04:47;11.25;;;7.25;;
48999;SDS011;34808;48.144;17.158;2022-10-18T16:07:13;18.75;;;7.70;;
48999;SDS011;34808;48.144;17.158;2022-10-18T16:09:38;12.95;;;8.05;;
48999;SDS011;34808;48.144;17.158;2022-10-18T16:12:04;12.98;;;7.13;;
48999;SDS011;34808;48.144;17.158;2022-10-18T16:14:29;15.30;;;7.55;;
48999;SDS011;34808;48.144;17.158;2022-10-18T16:16:59;11.93;;;7.35;;
48999;SDS011;34808;48.144;17.158;2022-10-18T16:19:26;17.75;;;8.30;;
48999;SDS011;34808;48.144;17.158;2022-10-18T16:21:52;19.83;;;8.75;;
48999;SDS011;34808;48.144;17.158;2022-10-18T16:24:18;10.45;;;7.13;;
48999;SDS011;34808;48.144;17.158;2022-10-18T16:26:44;12.57;;;7.90;;
48999;SDS011;34808;48.144;17.158;2022-10-18T16:29:11;15.75;;;7.53;;
48999;SDS011;34808;48.144;17.158;2022-10-18T16:31:38;14.90;;;8.77;;
48999;SDS011;34808;48.144;17.158;2022-10-18T16:34:03;15.85;;;8.10;;
48999;SDS011;34808;48.144;17.158;2022-10-18T16:36:29;14.20;;;8.20;;
48999;SDS011;34808;48.144;17.158;2022-10-18T16:39:01;19.25;;;8.82;;
48999;SDS011;34808;48.144;17.158;2022-10-18T16:41:28;20.08;;;9.38;;
48999;SDS011;34808;48.144;17.158;2022-10-18T16:43:54;21.48;;;12.95;;
48999;SDS011;34808;48.144;17.158;2022-10-18T16:48:47;23.38;;;11.40;;
48999;SDS011;34808;48.144;17.158;2022-10-18T16:51:13;15.45;;;10.85;;
48999;SDS011;34808;48.144;17.158;2022-10-18T16:53:39;16.10;;;9.20;;
48999;SDS011;34808;48.144;17.158;2022-10-18T16:56:05;18.40;;;10.10;;
48999;SDS011;34808;48.144;17.158;2022-10-18T16:58:37;17.10;;;11.27;;
48999;SDS011;34808;48.144;17.158;2022-10-18T17:04:38;32.00;;;12.57;;
48999;SDS011;34808;48.144;17.158;2022-10-18T17:07:03;19.98;;;11.30;;
48999;SDS011;34808;48.144;17.158;2022-10-18T17:09:29;18.92;;;10.65;;
48999;SDS011;34808;48.144;17.158;2022-10-18T17:11:54;16.70;;;10.55;;
48999;SDS011;34808;48.144;17.158;2022-10-18T17:14:20;22.13;;;11.13;;
48999;SDS011;34808;48.144;17.158;2022-10-18T17:16:45;17.50;;;10.35;;
48999;SDS011;34808;48.144;17.158;2022-10-18T17:19:10;26.58;;;13.07;;
48999;SDS011;34808;48.144;17.158;2022-10-18T17:21:36;19.00;;;11.75;;
48999;SDS011;34808;48.144;17.158;2022-10-18T17:24:01;16.27;;;12.18;;
48999;SDS011;34808;48.144;17.158;2022-10-18T17:26:28;15.48;;;12.73;;
48999;SDS011;34808;48.144;17.158;2022-10-18T17:28:58;23.45;;;14.05;;
48999;SDS011;34808;48.144;17.158;2022-10-18T17:35:18;20.25;;;14.25;;
48999;SDS011;34808;48.144;17.158;2022-10-18T17:37:46;21.17;;;13.95;;
48999;SDS011;34808;48.144;17.158;2022-10-18T17:50:18;26.83;;;14.43;;
48999;SDS011;34808;48.144;17.158;2022-10-18T17:59:07;32.58;;;19.60;;
48999;SDS011;34808;48.144;17.158;2022-10-18T18:01:33;23.50;;;15.57;;
48999;SDS011;34808;48.144;17.158;2022-10-18T18:03:59;18.75;;;14.07;;
48999;SDS011;34808;48.144;17.158;2022-10-18T18:06:27;26.17;;;14.27;;
48999;SDS011;34808;48.144;17.158;2022-10-18T18:12:04;22.05;;;15.45;;
48999;SDS011;34808;48.144;17.158;2022-10-18T18:17:23;21.23;;;14.18;;
48999;SDS011;34808;48.144;17.158;2022-10-18T18:19:49;21.88;;;13.40;;
48999;SDS011;34808;48.144;17.158;2022-10-18T18:22:22;23.95;;;14.25;;
48999;SDS011;34808;48.144;17.158;2022-10-18T18:31:35;24.40;;;16.70;;
48999;SDS011;34808;48.144;17.158;2022-10-18T18:34:01;32.58;;;21.52;;
48999;SDS011;34808;48.144;17.158;2022-10-18T18:36:40;20.83;;;18.67;;
48999;SDS011;34808;48.144;17.158;2022-10-18T18:39:07;25.10;;;18.23;;
48999;SDS011;34808;48.144;17.158;2022-10-18T18:41:40;30.98;;;19.25;;
48999;SDS011;34808;48.144;17.158;2022-10-18T18:44:05;25.85;;;19.63;;
48999;SDS011;34808;48.144;17.158;2022-10-18T18:46:32;27.35;;;20.33;;
48999;SDS011;34808;48.144;17.158;2022-10-18T18:49:01;30.08;;;18.88;;
48999;SDS011;34808;48.144;17.158;2022-10-18T18:51:27;29.27;;;20.15;;
48999;SDS011;34808;48.144;17.158;2022-10-18T18:53:52;29.80;;;19.80;;
48999;SDS011;34808;48.144;17.158;2022-10-18T18:56:20;30.08;;;20.42;;
48999;SDS011;34808;48.144;17.158;2022-10-18T18:58:48;27.67;;;18.27;;
48999;SDS011;34808;48.144;17.158;2022-10-18T19:01:20;24.70;;;18.48;;
48999;SDS011;34808;48.144;17.158;2022-10-18T19:03:48;25.08;;;19.45;;
48999;SDS011;34808;48.144;17.158;2022-10-18T19:06:16;30.55;;;19.13;;
48999;SDS011;34808;48.144;17.158;2022-10-18T19:08:44;27.55;;;19.48;;
48999;SDS011;34808;48.144;17.158;2022-10-18T19:11:15;27.67;;;20.38;;
48999;SDS011;34808;48.144;17.158;2022-10-18T19:13:42;29.77;;;20.33;;
48999;SDS011;34808;48.144;17.158;2022-10-18T19:16:27;26.85;;;19.50;;
48999;SDS011;34808;48.144;17.158;2022-10-18T19:19:01;32.22;;;18.67;;
48999;SDS011;34808;48.144;17.158;2022-10-18T19:21:32;30.60;;;18.27;;
48999;SDS011;34808;48.144;17.158;2022-10-18T19:23:59;27.58;;;19.58;;
48999;SDS011;34808;48.144;17.158;2022-10-18T19:26:38;27.60;;;18.17;;
48999;SDS011;34808;48.144;17.158;2022-10-18T19:29:15;24.45;;;19.17;;
48999;SDS011;34808;48.144;17.158;2022-10-18T19:31:43;27.75;;;20.25;;
48999;SDS011;34808;48.144;17.158;2022-10-18T19:34:10;24.02;;;19.65;;
48999;SDS011;34808;48.144;17.158;2022-10-18T19:39:32;26.48;;;20.73;;
48999;SDS011;34808;48.144;17.158;2022-10-18T19:48:44;28.25;;;19.88;;
48999;SDS011;34808;48.144;17.158;2022-10-18T19:51:29;36.58;;;21.17;;
48999;SDS011;34808;48.144;17.158;2022-10-18T20:11:02;42.75;;;24.15;;
48999;SDS011;34808;48.144;17.158;2022-10-18T20:42:16;29.83;;;15.23;;
48999;SDS011;34808;48.144;17.158;2022-10-18T20:44:43;21.83;;;14.48;;
48999;SDS011;34808;48.144;17.158;2022-10-18T20:47:08;19.02;;;13.68;;
48999;SDS011;34808;48.144;17.158;2022-10-18T20:49:34;21.23;;;13.68;;
48999;SDS011;34808;48.144;17.158;2022-10-18T20:51:59;24.27;;;13.80;;
48999;SDS011;34808;48.144;17.158;2022-10-18T20:57:37;19.30;;;14.05;;
48999;SDS011;34808;48.144;17.158;2022-10-18T21:00:02;19.80;;;13.95;;
48999;SDS011;34808;48.144;17.158;2022-10-18T21:02:28;21.20;;;14.70;;
48999;SDS011;34808;48.144;17.158;2022-10-18T21:04:53;24.38;;;16.10;;
48999;SDS011;34808;48.144;17.158;2022-10-18T21:07:19;22.23;;;13.88;;
48999;SDS011;34808;48.144;17.158;2022-10-18T21:09:44;17.38;;;13.77;;
48999;SDS011;34808;48.144;17.158;2022-10-18T21:12:09;27.90;;;13.75;;
48999;SDS011;34808;48.144;17.158;2022-10-18T21:14:46;20.92;;;12.88;;
48999;SDS011;34808;48.144;17.158;2022-10-18T21:17:11;18.40;;;12.98;;
48999;SDS011;34808;48.144;17.158;2022-10-18T21:19:37;18.27;;;14.57;;
48999;SDS011;34808;48.144;17.158;2022-10-18T21:22:20;18.77;;;14.77;;
48999;SDS011;34808;48.144;17.158;2022-10-18T21:24:49;19.98;;;14.07;;
48999;SDS011;34808;48.144;17.158;2022-10-18T21:27:14;22.38;;;13.90;;
48999;SDS011;34808;48.144;17.158;2022-10-18T21:29:47;18.70;;;13.73;;
48999;SDS011;34808;48.144;17.158;2022-10-18T21:32:13;20.27;;;13.82;;
48999;SDS011;34808;48.144;17.158;2022-10-18T21:34:39;19.30;;;13.75;;